Hauptseite
METAR-TAF:

METAR-TAF

Flughäfen :

Kuala Terengganu, Malaysia

Breite: 05-22-53N, Länge: 103-06-17E, Höhe: 6 m

Beobachtung

Neuester Wetterbericht von vor 37 Minuten, um 18:00 UTC
Wind 2 kt aus unterschiedlichen Richtungen
Temperatur 27°C
Luftfeuchtigkeit 89%
Luftdruck 1009 hPa
Sichtweite 10 km oder mehr
Leicht bewölkt in der Höhe von 2200 ft

METAR: WMKN 181800Z VRB02KT 9999 FEW022 27/25 Q1009

Zeit: 02:37 (18:37 UTC)

Prognose

Neuester Wetterbericht von vor 1 Stunde und 37 Minuten, um 17:00 UTC
Gültige Prognose vom 18 um 18 UTC bis 19 um 18 UTC
Wind 3 kt aus unterschiedlichen Richtungen
Sichtweite 10 km oder mehr
Leicht bewölkt in der Höhe von 2200 ft

TAF: WMKN 181700Z 1818/1918 VRB03KT 9999 FEW022

Wetterbeobachtungen und Prognosen von mehr als 4000 Flughäfen (METAR und TAF Bericht).

Die verfügbaren Stationen werden durch gelbe und rote Markierungen auf der Karte dargestellt.

Führen Sie die Maus auf sie, um den Namen der Station zu sehen.

Darauf klicken, um die Beobachtung von Wetterbeobachtungen und Prognosen zu sehen.

Um die Karte zu ändern : klicken Sie auf den grünen Tasten mit einem schwarzen Kreuz Zum Vergrößern, auf den grünen Button mit einem Gedankenstrich zu verkleinern, oder auf die grünen Pfeile für benachbarte Karten.


METAR-TAF: